Time;durP1;ratioP1;P1;durP2;ratioP2;P2;SDS_P1;SDS_P2;PMS_P1;PMS_P2;Temp;Humidity;BMP_temperature;BMP_pressure;BME280_temperature;BME280_humidity;BME280_pressure;Samples;Min_cycle;Max_cycle;Signal;HPM_P1;HPM_P2
2021/12/30 00:00:51;;;;;;;0.40;0.40;;;;;9.00;95838.00;;;;8247341;28;20278;-81
2021/12/30 00:04:54;;;;;;;0.40;0.40;;;;;9.00;95844.00;;;;8250968;28;20237;-80
2021/12/30 00:08:57;;;;;;;0.40;0.40;;;;;9.00;95846.00;;;;8253752;28;20322;-80
2021/12/30 00:13:02;;;;;;;0.40;0.40;;;;;9.10;95856.00;;;;8257361;28;20329;-80
2021/12/30 00:17:05;;;;;;;0.40;0.40;;;;;9.10;95857.00;;;;8246026;28;20721;-80
2021/12/30 00:21:10;;;;;;;0.30;0.30;;;;;9.20;95862.00;;;;8254785;28;20223;-80
2021/12/30 00:25:15;;;;;;;0.30;0.30;;;;;9.20;95856.00;;;;8250576;28;20341;-81
2021/12/30 00:29:22;;;;;;;0.40;0.40;;;;;9.20;95861.00;;;;8263355;28;20266;-81
2021/12/30 00:33:27;;;;;;;0.40;0.40;;;;;9.30;95878.00;;;;8261133;28;20222;-81
2021/12/30 00:37:30;;;;;;;0.40;0.40;;;;;9.30;95878.00;;;;8257491;28;20337;-79
2021/12/30 00:41:34;;;;;;;0.40;0.40;;;;;9.30;95885.00;;;;8258019;28;20301;-78
2021/12/30 00:45:38;;;;;;;0.40;0.40;;;;;9.40;95880.00;;;;8257624;28;20704;-79
2021/12/30 00:49:42;;;;;;;0.30;0.30;;;;;9.50;95896.00;;;;8271925;28;20237;-80
2021/12/30 00:53:45;;;;;;;0.30;0.30;;;;;9.60;95914.00;;;;8256265;28;20233;-81
2021/12/30 00:57:48;;;;;;;0.40;0.40;;;;;9.60;95911.00;;;;8255620;28;20325;-79
2021/12/30 01:01:53;;;;;;;0.30;0.30;;;;;9.70;95916.00;;;;8273092;28;20605;-80
2021/12/30 01:05:57;;;;;;;0.30;0.30;;;;;9.80;95918.00;;;;8259025;28;20230;-79
2021/12/30 01:10:00;;;;;;;0.30;0.30;;;;;9.80;95931.00;;;;8249902;28;20226;-78
2021/12/30 01:14:13;;;;;;;0.30;0.30;;;;;9.90;95943.00;;;;8257609;28;20270;-79
2021/12/30 01:18:27;;;;;;;0.30;0.30;;;;;9.90;95934.00;;;;8278687;28;20264;-79
2021/12/30 01:22:33;;;;;;;0.40;0.40;;;;;10.00;95938.00;;;;8272585;28;20264;-80
2021/12/30 01:26:36;;;;;;;0.32;0.32;;;;;10.00;95953.00;;;;8248153;28;20231;-79
2021/12/30 01:30:39;;;;;;;0.30;0.30;;;;;10.10;95944.00;;;;8267859;28;20267;-79
2021/12/30 01:34:44;;;;;;;0.30;0.30;;;;;10.20;95940.00;;;;8266174;28;20256;-80
2021/12/30 01:38:48;;;;;;;0.30;0.30;;;;;10.30;95947.00;;;;8258867;28;20227;-79
2021/12/30 01:42:52;;;;;;;0.30;0.30;;;;;10.40;95955.00;;;;8257443;28;20313;-79
2021/12/30 01:46:56;;;;;;;0.30;0.30;;;;;10.50;95956.00;;;;8254229;28;20680;-80
2021/12/30 01:51:01;;;;;;;0.30;0.30;;;;;10.50;95972.00;;;;8252390;28;20330;-79
2021/12/30 01:55:04;;;;;;;0.30;0.30;;;;;10.60;95975.00;;;;8253520;28;20312;-80
2021/12/30 01:59:08;;;;;;;0.30;0.30;;;;;10.60;95982.00;;;;8251480;28;20330;-79
2021/12/30 02:03:12;;;;;;;0.30;0.30;;;;;10.70;95994.00;;;;8259533;28;20325;-80
2021/12/30 02:07:18;;;;;;;0.40;0.40;;;;;10.70;95997.00;;;;8260950;28;20285;-80
2021/12/30 02:11:22;;;;;;;0.30;0.30;;;;;10.80;96003.00;;;;8259682;28;20317;-80
2021/12/30 02:15:25;;;;;;;0.30;0.30;;;;;10.80;96003.00;;;;8258176;28;20271;-79
2021/12/30 02:19:28;;;;;;;0.30;0.30;;;;;11.00;96008.00;;;;8254233;28;20230;-80
2021/12/30 02:23:34;;;;;;;0.30;0.30;;;;;11.10;96001.00;;;;8261023;28;20222;-79
2021/12/30 02:27:38;;;;;;;0.30;0.30;;;;;11.30;96016.00;;;;8250232;28;20264;-79
2021/12/30 02:31:41;;;;;;;0.30;0.30;;;;;11.40;96020.00;;;;8254559;28;20261;-80
2021/12/30 02:35:45;;;;;;;0.30;0.30;;;;;11.60;96020.00;;;;8254679;28;20243;-79
2021/12/30 02:39:53;;;;;;;0.30;0.30;;;;;11.70;96026.00;;;;8249238;28;20259;-80
2021/12/30 02:43:56;;;;;;;0.30;0.30;;;;;11.80;96027.00;;;;8256332;28;20236;-80
2021/12/30 02:47:59;;;;;;;0.40;0.40;;;;;11.90;96030.00;;;;8248180;28;20349;-79
2021/12/30 02:52:03;;;;;;;0.30;0.30;;;;;12.00;96027.00;;;;8252422;28;20349;-80
2021/12/30 02:56:08;;;;;;;0.30;0.30;;;;;12.10;96035.00;;;;8255519;28;20245;-79
2021/12/30 03:04:25;;;;;;;0.30;0.30;;;;;12.20;96057.00;;;;8347723;22;20726;-79
2021/12/30 03:08:29;;;;;;;0.30;0.30;;;;;12.20;96069.00;;;;8336962;28;20283;-79
2021/12/30 03:12:34;;;;;;;0.30;0.30;;;;;12.30;96069.00;;;;8339359;28;20245;-79
2021/12/30 03:16:37;;;;;;;0.30;0.30;;;;;12.30;96082.00;;;;8344411;28;20321;-78
2021/12/30 03:20:40;;;;;;;0.30;0.30;;;;;12.30;96094.00;;;;8342721;28;20249;-78
2021/12/30 03:24:44;;;;;;;0.30;0.30;;;;;12.30;96106.00;;;;8341301;28;20258;-78
2021/12/30 03:28:49;;;;;;;0.30;0.30;;;;;12.30;96123.00;;;;8344082;28;20911;-78
2021/12/30 03:32:53;;;;;;;0.30;0.30;;;;;12.30;96120.00;;;;8344940;28;20337;-78
2021/12/30 03:36:56;;;;;;;0.30;0.30;;;;;12.30;96128.00;;;;8338646;28;20313;-78
2021/12/30 03:41:00;;;;;;;0.30;0.30;;;;;12.30;96131.00;;;;8344516;28;20257;-78
2021/12/30 03:45:07;;;;;;;0.30;0.30;;;;;12.30;96152.00;;;;8344162;28;20587;-78
2021/12/30 03:49:11;;;;;;;0.30;0.30;;;;;12.30;96146.00;;;;8342966;28;20251;-77
2021/12/30 03:53:15;;;;;;;0.40;0.40;;;;;12.40;96158.00;;;;8343834;28;20330;-77
2021/12/30 03:57:19;;;;;;;0.30;0.30;;;;;12.40;96155.00;;;;8337384;28;20314;-77
2021/12/30 04:01:26;;;;;;;0.30;0.30;;;;;12.40;96153.00;;;;8343642;28;20389;-79
2021/12/30 04:05:29;;;;;;;0.30;0.30;;;;;12.40;96157.00;;;;8335442;28;20235;-78
2021/12/30 04:09:32;;;;;;;0.30;0.30;;;;;12.40;96182.00;;;;8339109;28;20328;-76
2021/12/30 04:13:36;;;;;;;0.30;0.30;;;;;12.50;96190.00;;;;8335598;28;20263;-76
2021/12/30 04:17:41;;;;;;;0.30;0.30;;;;;12.50;96188.00;;;;8346899;28;20668;-77
2021/12/30 04:21:45;;;;;;;0.30;0.30;;;;;12.50;96185.00;;;;8347455;28;20243;-77
2021/12/30 04:25:48;;;;;;;0.30;0.30;;;;;12.50;96205.00;;;;8346132;28;20218;-75
2021/12/30 04:29:51;;;;;;;0.38;0.38;;;;;12.50;96206.00;;;;8351092;28;20604;-76
2021/12/30 04:33:56;;;;;;;0.30;0.30;;;;;12.60;96219.00;;;;8352291;28;20230;-76
2021/12/30 04:37:59;;;;;;;0.30;0.30;;;;;12.60;96227.00;;;;8349712;28;20263;-76
2021/12/30 04:42:02;;;;;;;0.30;0.30;;;;;12.60;96240.00;;;;8351504;28;20684;-76
2021/12/30 04:46:06;;;;;;;0.30;0.30;;;;;12.60;96259.00;;;;8345919;28;20259;-77
2021/12/30 04:50:13;;;;;;;0.30;0.30;;;;;12.60;96267.00;;;;8346420;28;20236;-77
2021/12/30 04:54:17;;;;;;;0.30;0.30;;;;;12.60;96264.00;;;;8343428;28;20239;-76
2021/12/30 04:58:20;;;;;;;0.30;0.30;;;;;12.50;96255.00;;;;8352442;28;20312;-77
2021/12/30 05:02:29;;;;;;;0.30;0.30;;;;;12.50;96254.00;;;;8345149;28;20332;-76
2021/12/30 05:06:36;;;;;;;0.30;0.30;;;;;12.40;96270.00;;;;8348668;28;20228;-77
2021/12/30 05:10:39;;;;;;;0.30;0.30;;;;;12.30;96273.00;;;;8350068;28;20259;-77
2021/12/30 05:14:42;;;;;;;0.30;0.30;;;;;12.30;96272.00;;;;8348353;28;20259;-77
2021/12/30 05:18:48;;;;;;;0.30;0.30;;;;;12.30;96271.00;;;;8342992;28;20326;-77
2021/12/30 05:22:53;;;;;;;0.30;0.30;;;;;12.30;96277.00;;;;8347915;28;20637;-77
2021/12/30 05:26:56;;;;;;;0.30;0.30;;;;;12.30;96290.00;;;;8342457;28;20263;-77
2021/12/30 05:30:59;;;;;;;0.30;0.30;;;;;12.30;96293.00;;;;8347014;28;20224;-77
2021/12/30 05:35:03;;;;;;;0.30;0.30;;;;;12.30;96300.00;;;;8342762;28;20995;-76
2021/12/30 05:39:08;;;;;;;0.30;0.30;;;;;12.20;96304.00;;;;8345332;28;20920;-76
2021/12/30 05:43:11;;;;;;;0.30;0.30;;;;;12.20;96306.00;;;;8319322;28;20354;-77
2021/12/30 05:47:16;;;;;;;0.30;0.30;;;;;12.20;96316.00;;;;8310375;28;20509;-77
2021/12/30 05:51:20;;;;;;;0.30;0.30;;;;;12.20;96318.00;;;;8344255;28;20228;-77
2021/12/30 05:55:24;;;;;;;0.30;0.30;;;;;12.10;96326.00;;;;8352260;28;20239;-77
2021/12/30 05:59:27;;;;;;;0.30;0.30;;;;;12.10;96327.00;;;;8339947;28;20320;-77
2021/12/30 06:03:31;;;;;;;0.30;0.30;;;;;12.10;96328.00;;;;8338511;28;20253;-77
2021/12/30 06:07:34;;;;;;;0.30;0.30;;;;;12.10;96339.00;;;;8338354;28;20312;-77
2021/12/30 06:11:39;;;;;;;0.30;0.30;;;;;12.10;96358.00;;;;8339304;28;20263;-76
2021/12/30 06:15:42;;;;;;;0.30;0.30;;;;;12.10;96373.00;;;;8347148;28;20306;-77
2021/12/30 06:19:48;;;;;;;0.30;0.30;;;;;12.10;96389.00;;;;8340455;28;20256;-77
2021/12/30 06:23:51;;;;;;;0.30;0.30;;;;;12.10;96398.00;;;;8340038;28;20311;-77
2021/12/30 06:27:56;;;;;;;0.30;0.30;;;;;12.10;96396.00;;;;8342996;28;20664;-76
2021/12/30 06:31:59;;;;;;;0.30;0.30;;;;;12.00;96396.00;;;;8337700;28;20235;-77
2021/12/30 06:36:03;;;;;;;0.35;0.35;;;;;12.00;96412.00;;;;8342167;28;20243;-77
2021/12/30 06:40:08;;;;;;;0.30;0.30;;;;;12.00;96408.00;;;;8337157;28;20229;-77
2021/12/30 06:44:12;;;;;;;0.40;0.40;;;;;12.00;96403.00;;;;8341411;28;20622;-77
2021/12/30 06:48:15;;;;;;;0.30;0.30;;;;;12.00;96401.00;;;;8338447;28;20783;-78
2021/12/30 06:52:19;;;;;;;0.30;0.30;;;;;12.00;96406.00;;;;8331307;28;20235;-78
2021/12/30 06:56:23;;;;;;;0.30;0.30;;;;;12.10;96406.00;;;;8338175;28;20236;-78
2021/12/30 07:00:27;;;;;;;0.30;0.30;;;;;12.10;96407.00;;;;8338363;28;20231;-78
2021/12/30 07:04:31;;;;;;;0.30;0.30;;;;;12.10;96408.00;;;;8329137;28;20233;-78
2021/12/30 07:08:37;;;;;;;0.30;0.30;;;;;12.10;96411.00;;;;8319606;28;20726;-77
2021/12/30 07:12:40;;;;;;;0.30;0.30;;;;;12.10;96428.00;;;;8334827;28;20319;-80
2021/12/30 07:16:45;;;;;;;0.40;0.40;;;;;12.10;96429.00;;;;8330431;28;20255;-81
2021/12/30 07:20:48;;;;;;;0.30;0.30;;;;;12.00;96433.00;;;;8334656;28;20314;-80
2021/12/30 07:24:52;;;;;;;0.30;0.30;;;;;12.00;96436.00;;;;8338760;28;20244;-79
2021/12/30 07:28:55;;;;;;;0.30;0.30;;;;;12.10;96447.00;;;;8324648;28;20224;-80
2021/12/30 07:33:01;;;;;;;0.30;0.30;;;;;12.10;96439.00;;;;8332839;28;20601;-79
2021/12/30 07:37:04;;;;;;;0.30;0.30;;;;;12.20;96446.00;;;;8329637;28;20776;-80
2021/12/30 07:41:07;;;;;;;0.30;0.30;;;;;12.20;96449.00;;;;8322928;28;20318;-77
2021/12/30 07:45:12;;;;;;;0.30;0.30;;;;;12.20;96452.00;;;;8332110;28;20312;-77
2021/12/30 07:49:17;;;;;;;0.30;0.30;;;;;12.20;96459.00;;;;8339851;28;20336;-77
2021/12/30 07:53:21;;;;;;;0.30;0.30;;;;;12.30;96462.00;;;;8343887;28;20315;-80
2021/12/30 07:57:24;;;;;;;0.30;0.30;;;;;12.20;96475.00;;;;8343879;28;20307;-76
2021/12/30 08:01:27;;;;;;;0.30;0.30;;;;;12.30;96479.00;;;;8335032;28;20267;-78
2021/12/30 08:05:32;;;;;;;0.30;0.30;;;;;12.20;96492.00;;;;8348880;28;20236;-77
2021/12/30 08:09:35;;;;;;;0.30;0.30;;;;;12.20;96491.00;;;;8343974;28;20252;-77
2021/12/30 08:13:38;;;;;;;0.30;0.30;;;;;12.30;96489.00;;;;8351420;28;20286;-77
2021/12/30 08:17:42;;;;;;;0.30;0.30;;;;;12.30;96486.00;;;;8335190;28;20257;-78
2021/12/30 08:21:47;;;;;;;0.30;0.30;;;;;12.30;96499.00;;;;8344963;28;20226;-79
2021/12/30 08:25:51;;;;;;;0.30;0.30;;;;;12.30;96488.00;;;;8340339;28;20482;-81
2021/12/30 08:29:54;;;;;;;0.40;0.40;;;;;12.30;96480.00;;;;8342922;28;20242;-80
2021/12/30 08:33:57;;;;;;;0.30;0.30;;;;;12.30;96486.00;;;;8347749;28;21776;-82
2021/12/30 08:38:02;;;;;;;0.30;0.30;;;;;12.30;96487.00;;;;8341793;28;20235;-82
2021/12/30 08:42:06;;;;;;;0.30;0.30;;;;;12.30;96490.00;;;;8339850;28;20240;-80
2021/12/30 08:46:09;;;;;;;0.30;0.30;;;;;12.30;96494.00;;;;8345937;28;20689;-82
2021/12/30 08:50:16;;;;;;;0.30;0.30;;;;;12.30;96500.00;;;;8345723;28;20316;-85
2021/12/30 08:54:21;;;;;;;0.32;0.32;;;;;12.40;96480.00;;;;8342712;28;20236;-80
2021/12/30 08:58:24;;;;;;;0.40;0.40;;;;;12.40;96484.00;;;;8344114;28;20314;-81
2021/12/30 09:02:28;;;;;;;0.30;0.30;;;;;12.50;96492.00;;;;8338698;28;20252;-81
2021/12/30 09:06:31;;;;;;;0.30;0.30;;;;;12.50;96495.00;;;;8345370;28;20224;-80
2021/12/30 09:10:40;;;;;;;0.30;0.30;;;;;12.60;96484.00;;;;8346202;28;20726;-81
2021/12/30 09:14:44;;;;;;;0.30;0.30;;;;;12.70;96483.00;;;;8336271;28;20230;-82
2021/12/30 09:18:49;;;;;;;0.30;0.30;;;;;12.80;96487.00;;;;8344329;28;20746;-83
2021/12/30 09:22:56;;;;;;;0.30;0.30;;;;;12.80;96475.00;;;;8345797;28;20263;-80
2021/12/30 09:27:01;;;;;;;0.30;0.30;;;;;12.80;96471.00;;;;8342335;28;20314;-82
2021/12/30 09:31:05;;;;;;;0.30;0.30;;;;;12.80;96476.00;;;;8336268;28;20258;-81
2021/12/30 09:35:09;;;;;;;0.30;0.30;;;;;12.90;96486.00;;;;8338918;28;20697;-82
2021/12/30 09:39:15;;;;;;;0.30;0.30;;;;;12.90;96479.00;;;;8338321;28;20319;-83
2021/12/30 09:43:19;;;;;;;0.30;0.30;;;;;12.90;96473.00;;;;8337382;28;20259;-82
2021/12/30 09:47:23;;;;;;;0.30;0.30;;;;;12.90;96463.00;;;;8339725;28;20331;-82
2021/12/30 09:51:26;;;;;;;0.30;0.30;;;;;13.00;96460.00;;;;8334642;28;20313;-82
2021/12/30 09:55:30;;;;;;;0.35;0.35;;;;;13.00;96457.00;;;;8345504;28;20255;-82
2021/12/30 09:59:35;;;;;;;0.30;0.30;;;;;13.10;96449.00;;;;8344081;28;20251;-82
2021/12/30 10:03:38;;;;;;;0.30;0.30;;;;;13.10;96455.00;;;;8342774;28;20255;-83
2021/12/30 10:07:42;;;;;;;0.30;0.30;;;;;13.20;96453.00;;;;8344667;28;20314;-84
2021/12/30 10:11:50;;;;;;;0.30;0.30;;;;;13.30;96460.00;;;;8326763;28;20251;-82
2021/12/30 10:15:58;;;;;;;0.30;0.30;;;;;13.50;96452.00;;;;8328789;28;20260;-85
2021/12/30 10:20:20;;;;;;;0.30;0.30;;;;;13.50;96452.00;;;;8334713;28;20237;-86
2021/12/30 10:24:24;;;;;;;0.30;0.30;;;;;13.60;96446.00;;;;8331463;28;20223;-90
2021/12/30 10:28:32;;;;;;;0.30;0.30;;;;;13.70;96463.00;;;;8334007;28;20248;-86
2021/12/30 10:32:36;;;;;;;0.30;0.30;;;;;13.80;96471.00;;;;8329329;28;20228;-89
2021/12/30 10:36:43;;;;;;;0.30;0.30;;;;;13.80;96473.00;;;;8326376;28;20604;-87
2021/12/30 10:40:55;;;;;;;0.30;0.30;;;;;13.80;96477.00;;;;8335344;28;21731;-84
2021/12/30 10:45:04;;;;;;;0.30;0.30;;;;;13.70;96484.00;;;;8334068;28;20236;-86
2021/12/30 10:49:12;;;;;;;0.30;0.30;;;;;13.70;96478.00;;;;8331838;28;20677;-77
2021/12/30 10:53:30;;;;;;;0.20;0.20;;;;;13.70;96475.00;;;;8335627;28;20262;-78
2021/12/30 10:57:34;;;;;;;0.30;0.30;;;;;13.70;96470.00;;;;8328985;28;20232;-77
2021/12/30 11:01:44;;;;;;;0.30;0.30;;;;;13.70;96466.00;;;;8328883;28;20848;-79
2021/12/30 11:06:16;;;;;;;0.30;0.30;;;;;13.70;96464.00;;;;8329034;28;20299;-79
2021/12/30 11:10:30;;;;;;;0.30;0.30;;;;;13.70;96466.00;;;;8334906;28;20326;-79
2021/12/30 11:14:36;;;;;;;0.30;0.30;;;;;13.70;96478.00;;;;8337426;28;20307;-79
2021/12/30 11:18:41;;;;;;;0.30;0.30;;;;;13.70;96478.00;;;;8333808;28;20259;-81
2021/12/30 11:22:47;;;;;;;0.30;0.30;;;;;13.80;96476.00;;;;8328979;28;20243;-79
2021/12/30 11:26:51;;;;;;;0.30;0.30;;;;;13.80;96484.00;;;;8331329;28;20247;-79
2021/12/30 11:30:55;;;;;;;0.30;0.30;;;;;13.80;96476.00;;;;8339161;28;20304;-79
2021/12/30 11:35:01;;;;;;;1.38;0.73;;;;;13.90;96469.00;;;;8342945;28;20228;-78
2021/12/30 11:39:14;;;;;;;0.30;0.30;;;;;14.00;96474.00;;;;8330372;28;20262;-77
2021/12/30 11:43:17;;;;;;;0.30;0.30;;;;;14.00;96477.00;;;;8338310;28;20319;-76
2021/12/30 11:47:43;;;;;;;0.40;0.40;;;;;14.10;96486.00;;;;8345716;28;20256;-78
2021/12/30 11:51:48;;;;;;;0.32;0.32;;;;;14.20;96483.00;;;;8329332;28;20241;-78
2021/12/30 11:56:01;;;;;;;0.30;0.30;;;;;14.20;96476.00;;;;8339118;28;20265;-78
2021/12/30 12:00:35;;;;;;;0.30;0.30;;;;;14.20;96478.00;;;;8337480;28;20251;-78
2021/12/30 12:04:39;;;;;;;0.20;0.20;;;;;14.20;96483.00;;;;8333227;28;20236;-78
2021/12/30 12:08:44;;;;;;;0.40;0.40;;;;;14.30;96471.00;;;;8340172;28;20235;-78
2021/12/30 12:12:49;;;;;;;0.20;0.20;;;;;14.40;96478.00;;;;8345436;28;20228;-78
2021/12/30 12:16:56;;;;;;;0.28;0.28;;;;;14.40;96467.00;;;;8335665;28;20805;-78
2021/12/30 12:21:02;;;;;;;0.30;0.30;;;;;14.50;96468.00;;;;8340039;28;20263;-78
2021/12/30 12:25:09;;;;;;;0.30;0.30;;;;;14.40;96477.00;;;;8336955;28;20232;-79
2021/12/30 12:29:24;;;;;;;0.30;0.30;;;;;14.40;96469.00;;;;8335808;28;20221;-78
2021/12/30 12:33:31;;;;;;;0.30;0.30;;;;;14.50;96464.00;;;;8330327;28;20237;-79
2021/12/30 12:37:56;;;;;;;0.30;0.30;;;;;14.50;96476.00;;;;8339276;28;20236;-79
2021/12/30 12:41:59;;;;;;;0.30;0.30;;;;;14.40;96472.00;;;;8334406;28;20331;-78
2021/12/30 12:46:04;;;;;;;0.20;0.20;;;;;14.40;96474.00;;;;8334359;28;20320;-79
2021/12/30 12:50:09;;;;;;;0.20;0.20;;;;;14.40;96469.00;;;;8329781;28;20698;-79
2021/12/30 12:54:14;;;;;;;0.30;0.30;;;;;14.40;96473.00;;;;8335432;28;20324;-78
2021/12/30 12:58:19;;;;;;;0.28;0.28;;;;;14.50;96465.00;;;;8333057;28;20248;-79
2021/12/30 13:02:23;;;;;;;0.30;0.30;;;;;14.50;96490.00;;;;8332945;28;20304;-81
2021/12/30 13:06:28;;;;;;;0.30;0.30;;;;;14.50;96487.00;;;;8344669;28;20216;-81
2021/12/30 13:10:32;;;;;;;0.30;0.30;;;;;14.60;96496.00;;;;8335363;28;20249;-80
2021/12/30 13:14:38;;;;;;;0.30;0.30;;;;;14.60;96500.00;;;;8335451;28;20259;-80
2021/12/30 13:18:43;;;;;;;0.30;0.30;;;;;14.60;96502.00;;;;8330733;28;20245;-82
2021/12/30 13:22:46;;;;;;;0.30;0.30;;;;;14.60;96493.00;;;;8337992;28;20248;-82
2021/12/30 13:26:50;;;;;;;0.20;0.20;;;;;14.60;96498.00;;;;8338521;28;20659;-82
2021/12/30 13:31:04;;;;;;;0.30;0.30;;;;;14.70;96474.00;;;;8336931;28;20706;-83
2021/12/30 13:35:13;;;;;;;0.30;0.30;;;;;14.70;96500.00;;;;8335768;28;20225;-83
2021/12/30 13:39:17;;;;;;;0.30;0.30;;;;;14.70;96503.00;;;;8334036;28;20232;-83
2021/12/30 13:43:23;;;;;;;0.30;0.30;;;;;14.70;96510.00;;;;8338468;28;20236;-82
2021/12/30 13:47:32;;;;;;;0.30;0.30;;;;;14.70;96510.00;;;;8329501;28;20224;-82
2021/12/30 13:51:37;;;;;;;0.30;0.30;;;;;14.80;96511.00;;;;8333420;28;20761;-81
2021/12/30 13:55:47;;;;;;;0.22;0.22;;;;;14.80;96508.00;;;;8337499;28;20248;-82
2021/12/30 13:59:54;;;;;;;0.20;0.20;;;;;14.80;96505.00;;;;8337765;28;20248;-82
2021/12/30 14:04:06;;;;;;;0.30;0.30;;;;;14.80;96498.00;;;;8338402;28;20316;-82
2021/12/30 14:08:13;;;;;;;0.20;0.20;;;;;14.80;96494.00;;;;8327361;28;20233;-83
2021/12/30 14:12:16;;;;;;;0.30;0.30;;;;;14.80;96499.00;;;;8328334;28;20259;-83
2021/12/30 14:16:21;;;;;;;0.30;0.30;;;;;14.80;96500.00;;;;8337299;28;20255;-82
2021/12/30 14:20:25;;;;;;;0.28;0.28;;;;;14.80;96507.00;;;;8332251;28;20274;-81
2021/12/30 14:24:33;;;;;;;0.30;0.30;;;;;14.80;96505.00;;;;8337710;28;20265;-83
2021/12/30 14:28:36;;;;;;;0.30;0.30;;;;;14.80;96498.00;;;;8326735;28;20248;-81
2021/12/30 14:32:40;;;;;;;0.30;0.30;;;;;14.70;96512.00;;;;8337878;28;20250;-81
2021/12/30 14:37:05;;;;;;;0.30;0.30;;;;;14.70;96523.00;;;;8334461;28;20315;-82
2021/12/30 14:41:16;;;;;;;0.30;0.30;;;;;14.70;96529.00;;;;8321327;28;20934;-82
2021/12/30 14:45:19;;;;;;;0.30;0.30;;;;;14.70;96538.00;;;;8333563;28;20704;-83
2021/12/30 14:49:23;;;;;;;0.30;0.30;;;;;14.80;96548.00;;;;8327868;28;20274;-83
2021/12/30 14:53:28;;;;;;;0.30;0.30;;;;;14.70;96548.00;;;;8335986;28;20244;-83
2021/12/30 14:57:33;;;;;;;0.30;0.30;;;;;14.70;96554.00;;;;8337846;28;20235;-83
2021/12/30 15:01:37;;;;;;;0.30;0.30;;;;;14.70;96559.00;;;;8337301;28;20266;-85
2021/12/30 15:05:40;;;;;;;0.30;0.30;;;;;14.70;96564.00;;;;8334789;28;20232;-82
2021/12/30 15:09:49;;;;;;;0.20;0.20;;;;;14.70;96555.00;;;;8327747;28;20247;-82
2021/12/30 15:13:55;;;;;;;0.30;0.30;;;;;14.60;96555.00;;;;8326697;28;20336;-84
2021/12/30 15:17:58;;;;;;;0.30;0.30;;;;;14.60;96562.00;;;;8337269;28;20248;-82
2021/12/30 15:22:01;;;;;;;0.30;0.30;;;;;14.60;96567.00;;;;8328725;28;20752;-80
2021/12/30 15:26:05;;;;;;;0.30;0.30;;;;;14.60;96569.00;;;;8333280;28;20232;-77
2021/12/30 15:30:12;;;;;;;0.30;0.30;;;;;14.60;96577.00;;;;8335865;28;20685;-77
2021/12/30 15:34:21;;;;;;;0.30;0.30;;;;;14.60;96576.00;;;;8332297;28;20224;-76
2021/12/30 15:38:25;;;;;;;0.30;0.30;;;;;14.50;96579.00;;;;8330365;28;20236;-76
2021/12/30 15:42:28;;;;;;;0.30;0.30;;;;;14.50;96579.00;;;;8326466;28;20312;-76
2021/12/30 15:46:32;;;;;;;0.30;0.30;;;;;14.50;96569.00;;;;8333036;28;20225;-77
2021/12/30 15:50:36;;;;;;;0.30;0.30;;;;;14.40;96577.00;;;;8333000;28;20618;-77
2021/12/30 15:54:40;;;;;;;0.30;0.30;;;;;14.40;96586.00;;;;8331022;28;20303;-76
2021/12/30 15:58:43;;;;;;;0.30;0.30;;;;;14.40;96579.00;;;;8333621;28;20224;-75
2021/12/30 16:02:48;;;;;;;0.60;0.60;;;;;14.30;96589.00;;;;8328627;28;20260;-77
2021/12/30 16:06:52;;;;;;;0.30;0.30;;;;;14.40;96587.00;;;;8323669;28;20966;-77
2021/12/30 16:10:55;;;;;;;0.30;0.30;;;;;14.40;96591.00;;;;8332606;28;20228;-77
2021/12/30 16:14:59;;;;;;;0.30;0.30;;;;;14.30;96581.00;;;;8337077;28;20264;-77
2021/12/30 16:19:06;;;;;;;0.30;0.30;;;;;14.30;96590.00;;;;8339717;28;20256;-78
2021/12/30 16:23:10;;;;;;;0.40;0.40;;;;;14.30;96603.00;;;;8331954;28;20311;-78
2021/12/30 16:27:13;;;;;;;0.30;0.30;;;;;14.30;96607.00;;;;8331349;28;20321;-78
2021/12/30 16:31:16;;;;;;;0.30;0.30;;;;;14.30;96601.00;;;;8339221;28;20255;-77
2021/12/30 16:35:22;;;;;;;0.30;0.30;;;;;14.30;96602.00;;;;8337856;28;20331;-77
2021/12/30 16:39:26;;;;;;;0.25;0.25;;;;;14.30;96609.00;;;;8334313;28;20725;-77
2021/12/30 16:43:30;;;;;;;0.30;0.30;;;;;14.40;96619.00;;;;8335235;28;20252;-77
2021/12/30 16:47:33;;;;;;;0.30;0.30;;;;;14.40;96624.00;;;;8334343;28;21056;-77
2021/12/30 16:51:39;;;;;;;0.30;0.30;;;;;14.40;96630.00;;;;8334531;28;20315;-77
2021/12/30 16:55:43;;;;;;;0.30;0.30;;;;;14.40;96629.00;;;;8337262;28;20561;-77
2021/12/30 16:59:46;;;;;;;0.32;0.32;;;;;14.40;96629.00;;;;8333445;28;20249;-77
2021/12/30 17:03:49;;;;;;;0.30;0.30;;;;;14.40;96631.00;;;;8332691;28;20269;-77
2021/12/30 17:07:54;;;;;;;0.30;0.30;;;;;14.30;96631.00;;;;8335248;28;20304;-77
2021/12/30 17:11:57;;;;;;;0.30;0.30;;;;;14.30;96631.00;;;;8330570;28;20802;-76
2021/12/30 17:16:02;;;;;;;0.30;0.30;;;;;14.30;96636.00;;;;8331847;28;20249;-77
2021/12/30 17:20:08;;;;;;;0.30;0.30;;;;;14.20;96636.00;;;;8337405;28;20227;-77
2021/12/30 17:24:12;;;;;;;0.30;0.30;;;;;14.20;96636.00;;;;8335704;28;20259;-77
2021/12/30 17:28:15;;;;;;;0.30;0.30;;;;;14.30;96638.00;;;;8329414;28;20256;-77
2021/12/30 17:32:19;;;;;;;0.30;0.30;;;;;14.30;96642.00;;;;8336206;28;20256;-78
2021/12/30 17:36:23;;;;;;;0.30;0.30;;;;;14.20;96644.00;;;;8333102;28;20764;-77
2021/12/30 17:40:28;;;;;;;0.30;0.30;;;;;14.20;96652.00;;;;8335205;28;20303;-77
2021/12/30 17:44:33;;;;;;;0.30;0.30;;;;;14.20;96644.00;;;;8332046;28;20233;-77
2021/12/30 17:48:37;;;;;;;0.30;0.30;;;;;14.10;96637.00;;;;8330341;28;20240;-78
2021/12/30 17:52:40;;;;;;;1.50;0.68;;;;;14.10;96651.00;;;;8308789;28;20231;-78
2021/12/30 17:56:45;;;;;;;0.30;0.30;;;;;14.10;96648.00;;;;8331024;28;20300;-77
2021/12/30 18:00:49;;;;;;;0.30;0.30;;;;;14.20;96648.00;;;;8330705;28;20904;-79
2021/12/30 18:04:52;;;;;;;0.30;0.30;;;;;14.30;96659.00;;;;8326956;28;21275;-77
2021/12/30 18:08:56;;;;;;;0.22;0.22;;;;;14.30;96667.00;;;;8323665;28;20244;-77
2021/12/30 18:13:01;;;;;;;0.30;0.30;;;;;14.40;96677.00;;;;8329908;28;20310;-77
2021/12/30 18:17:05;;;;;;;0.35;0.35;;;;;14.40;96675.00;;;;8326936;28;20225;-77
2021/12/30 18:21:10;;;;;;;0.40;0.40;;;;;14.30;96671.00;;;;8329844;28;20216;-77
2021/12/30 18:25:13;;;;;;;0.40;0.40;;;;;14.20;96669.00;;;;8332268;28;20760;-78
2021/12/30 18:29:19;;;;;;;0.80;0.80;;;;;14.20;96667.00;;;;8337279;28;20260;-77
2021/12/30 18:33:23;;;;;;;0.30;0.30;;;;;14.10;96662.00;;;;8337253;28;20463;-77
2021/12/30 18:37:26;;;;;;;0.50;0.50;;;;;14.00;96675.00;;;;8336715;28;20668;-77
2021/12/30 18:41:29;;;;;;;0.60;0.60;;;;;14.00;96679.00;;;;8341420;28;20239;-77
2021/12/30 18:45:34;;;;;;;0.68;0.68;;;;;14.00;96680.00;;;;8337893;28;20808;-76
2021/12/30 18:49:39;;;;;;;0.73;0.73;;;;;14.00;96676.00;;;;8333545;28;20267;-77
2021/12/30 18:53:43;;;;;;;0.73;0.73;;;;;13.90;96683.00;;;;8339245;28;20260;-77
2021/12/30 18:57:48;;;;;;;0.50;0.50;;;;;13.90;96697.00;;;;8339449;28;20254;-77
2021/12/30 19:01:53;;;;;;;0.77;0.77;;;;;13.90;96696.00;;;;8333961;28;20225;-78
2021/12/30 19:05:57;;;;;;;0.75;0.75;;;;;13.90;96698.00;;;;8330669;28;20634;-77
2021/12/30 19:10:00;;;;;;;0.70;0.70;;;;;13.90;96706.00;;;;8335418;28;20258;-76
2021/12/30 19:14:03;;;;;;;0.60;0.60;;;;;13.90;96714.00;;;;8336506;28;20278;-77
2021/12/30 19:18:09;;;;;;;2.28;1.10;;;;;13.90;96709.00;;;;8333201;28;20745;-77
2021/12/30 19:22:12;;;;;;;0.90;0.90;;;;;13.90;96703.00;;;;8336243;28;20307;-76
2021/12/30 19:26:17;;;;;;;0.90;0.90;;;;;13.90;96701.00;;;;8318722;28;20311;-77
2021/12/30 19:30:23;;;;;;;0.80;0.80;;;;;13.90;96717.00;;;;8326598;28;20306;-77
2021/12/30 19:34:27;;;;;;;0.70;0.70;;;;;13.90;96723.00;;;;8339467;28;20761;-76
2021/12/30 19:38:32;;;;;;;0.75;0.75;;;;;13.80;96722.00;;;;8335083;28;20927;-77
2021/12/30 19:42:42;;;;;;;1.95;0.90;;;;;13.90;96717.00;;;;8330073;28;20278;-77
2021/12/30 19:46:45;;;;;;;0.70;0.70;;;;;13.90;96719.00;;;;8337567;28;20323;-74
2021/12/30 19:50:50;;;;;;;1.05;0.95;;;;;13.90;96721.00;;;;8343727;28;20232;-74
2021/12/30 19:54:54;;;;;;;0.68;0.68;;;;;13.90;96720.00;;;;8341991;28;20343;-73
2021/12/30 19:58:57;;;;;;;0.80;0.80;;;;;13.90;96735.00;;;;8340577;28;20826;-73
2021/12/30 20:03:06;;;;;;;2.38;0.80;;;;;13.90;96735.00;;;;8339360;28;20275;-72
2021/12/30 20:07:11;;;;;;;1.95;1.00;;;;;13.90;96743.00;;;;8340139;28;20290;-72
2021/12/30 20:11:14;;;;;;;3.22;1.73;;;;;13.90;96740.00;;;;8333947;28;20269;-73
2021/12/30 20:15:20;;;;;;;38.45;19.30;;;;;13.90;96747.00;;;;8340461;28;20240;-73
2021/12/30 20:19:24;;;;;;;116.35;86.13;;;;;13.80;96762.00;;;;8344821;28;20229;-74
2021/12/30 20:23:29;;;;;;;331.23;213.93;;;;;13.80;96760.00;;;;8339061;28;20256;-74
2021/12/30 20:27:35;;;;;;;83.82;35.70;;;;;13.80;96766.00;;;;8344268;28;20226;-73
2021/12/30 20:31:40;;;;;;;40.70;27.15;;;;;13.80;96770.00;;;;8341566;28;20251;-76